sensor_id;sensor_type;location;lat;lon;timestamp;pressure;altitude;pressure_sealevel;temperature;humidity
77017;BME280;65949;53.132;17.930;2023-05-17T00:01:57;101147.61;;;10.95;73.41
77017;BME280;65949;53.132;17.930;2023-05-17T00:04:24;101144.10;;;10.90;73.44
77017;BME280;65949;53.132;17.930;2023-05-17T00:06:50;101144.36;;;10.86;73.52
77017;BME280;65949;53.132;17.930;2023-05-17T00:09:17;101142.81;;;10.83;73.46
77017;BME280;65949;53.132;17.930;2023-05-17T00:11:44;101136.60;;;10.83;73.60
77017;BME280;65949;53.132;17.930;2023-05-17T00:14:11;101137.44;;;10.83;73.53
77017;BME280;65949;53.132;17.930;2023-05-17T00:16:37;101138.85;;;10.83;73.47
77017;BME280;65949;53.132;17.930;2023-05-17T00:19:04;101141.02;;;10.82;73.65
77017;BME280;65949;53.132;17.930;2023-05-17T00:21:31;101137.12;;;10.78;73.43
77017;BME280;65949;53.132;17.930;2023-05-17T00:23:57;101135.02;;;10.73;73.71
77017;BME280;65949;53.132;17.930;2023-05-17T00:26:24;101132.59;;;10.70;73.67
77017;BME280;65949;53.132;17.930;2023-05-17T00:28:51;101127.41;;;10.69;73.97
77017;BME280;65949;53.132;17.930;2023-05-17T00:31:17;101126.52;;;10.69;73.84
77017;BME280;65949;53.132;17.930;2023-05-17T00:33:44;101124.30;;;10.66;73.76
77017;BME280;65949;53.132;17.930;2023-05-17T00:36:12;101124.96;;;10.65;73.76
77017;BME280;65949;53.132;17.930;2023-05-17T00:38:39;101129.52;;;10.64;73.67
77017;BME280;65949;53.132;17.930;2023-05-17T00:41:06;101128.73;;;10.62;73.85
77017;BME280;65949;53.132;17.930;2023-05-17T00:43:32;101126.77;;;10.60;73.89
77017;BME280;65949;53.132;17.930;2023-05-17T00:45:59;101132.24;;;10.57;73.99
77017;BME280;65949;53.132;17.930;2023-05-17T00:48:27;101134.88;;;10.55;73.91
77017;BME280;65949;53.132;17.930;2023-05-17T00:50:55;101138.00;;;10.51;74.08
77017;BME280;65949;53.132;17.930;2023-05-17T00:53:22;101137.41;;;10.49;74.04
77017;BME280;65949;53.132;17.930;2023-05-17T00:55:49;101135.51;;;10.47;74.09
77017;BME280;65949;53.132;17.930;2023-05-17T00:58:16;101137.65;;;10.46;74.03
77017;BME280;65949;53.132;17.930;2023-05-17T01:00:43;101139.30;;;10.46;74.14
77017;BME280;65949;53.132;17.930;2023-05-17T01:03:11;101146.54;;;10.46;74.16
77017;BME280;65949;53.132;17.930;2023-05-17T01:05:38;101142.95;;;10.47;74.07
77017;BME280;65949;53.132;17.930;2023-05-17T01:08:04;101135.88;;;10.48;73.96
77017;BME280;65949;53.132;17.930;2023-05-17T01:16:43;101143.77;;;10.43;73.98
77017;BME280;65949;53.132;17.930;2023-05-17T01:27:47;101139.72;;;10.33;74.09
77017;BME280;65949;53.132;17.930;2023-05-17T01:30:16;101134.60;;;10.29;74.01
77017;BME280;65949;53.132;17.930;2023-05-17T01:32:45;101133.20;;;10.26;74.01
77017;BME280;65949;53.132;17.930;2023-05-17T01:35:13;101135.63;;;10.24;73.89
77017;BME280;65949;53.132;17.930;2023-05-17T01:37:40;101132.30;;;10.22;73.85
77017;BME280;65949;53.132;17.930;2023-05-17T01:40:08;101130.17;;;10.22;74.07
77017;BME280;65949;53.132;17.930;2023-05-17T01:42:38;101135.27;;;10.21;73.89
77017;BME280;65949;53.132;17.930;2023-05-17T01:45:16;101143.56;;;10.18;73.93
77017;BME280;65949;53.132;17.930;2023-05-17T01:47:59;101142.59;;;10.17;73.97
77017;BME280;65949;53.132;17.930;2023-05-17T01:50:33;101149.60;;;10.15;74.09
77017;BME280;65949;53.132;17.930;2023-05-17T01:53:13;101148.53;;;10.13;73.90
77017;BME280;65949;53.132;17.930;2023-05-17T01:55:53;101151.45;;;10.10;74.05
77017;BME280;65949;53.132;17.930;2023-05-17T01:58:24;101152.33;;;10.09;74.00
77017;BME280;65949;53.132;17.930;2023-05-17T02:00:55;101148.20;;;10.09;73.97
77017;BME280;65949;53.132;17.930;2023-05-17T02:03:22;101148.16;;;10.07;73.99
77017;BME280;65949;53.132;17.930;2023-05-17T02:05:52;101144.14;;;10.04;74.06
77017;BME280;65949;53.132;17.930;2023-05-17T02:08:19;101139.52;;;10.00;74.18
77017;BME280;65949;53.132;17.930;2023-05-17T02:10:45;101140.16;;;9.97;74.29
77017;BME280;65949;53.132;17.930;2023-05-17T02:13:12;101141.08;;;9.93;74.27
77017;BME280;65949;53.132;17.930;2023-05-17T02:15:39;101150.40;;;9.90;74.32
77017;BME280;65949;53.132;17.930;2023-05-17T02:18:05;101154.90;;;9.88;74.50
77017;BME280;65949;53.132;17.930;2023-05-17T02:20:32;101153.95;;;9.84;74.43
77017;BME280;65949;53.132;17.930;2023-05-17T02:22:59;101155.37;;;9.82;74.49
77017;BME280;65949;53.132;17.930;2023-05-17T02:25:26;101156.34;;;9.81;74.42
77017;BME280;65949;53.132;17.930;2023-05-17T02:27:52;101153.96;;;9.78;74.44
77017;BME280;65949;53.132;17.930;2023-05-17T02:30:19;101157.33;;;9.77;74.40
77017;BME280;65949;53.132;17.930;2023-05-17T02:32:50;101159.46;;;9.74;74.44
77017;BME280;65949;53.132;17.930;2023-05-17T02:35:17;101166.34;;;9.71;74.17
77017;BME280;65949;53.132;17.930;2023-05-17T02:37:43;101160.70;;;9.68;74.45
77017;BME280;65949;53.132;17.930;2023-05-17T02:40:12;101158.78;;;9.65;74.37
77017;BME280;65949;53.132;17.930;2023-05-17T02:42:39;101160.45;;;9.62;74.45
77017;BME280;65949;53.132;17.930;2023-05-17T02:45:06;101168.06;;;9.58;74.34
77017;BME280;65949;53.132;17.930;2023-05-17T02:47:33;101171.32;;;9.56;74.07
77017;BME280;65949;53.132;17.930;2023-05-17T02:50:00;101167.61;;;9.53;73.98
77017;BME280;65949;53.132;17.930;2023-05-17T02:52:27;101165.81;;;9.49;74.11
77017;BME280;65949;53.132;17.930;2023-05-17T02:54:54;101165.55;;;9.45;73.97
77017;BME280;65949;53.132;17.930;2023-05-17T02:57:20;101173.86;;;9.43;74.04
77017;BME280;65949;53.132;17.930;2023-05-17T02:59:47;101173.34;;;9.37;73.89
77017;BME280;65949;53.132;17.930;2023-05-17T03:02:14;101179.27;;;9.35;73.77
77017;BME280;65949;53.132;17.930;2023-05-17T03:04:41;101177.50;;;9.34;73.69
77017;BME280;65949;53.132;17.930;2023-05-17T03:07:08;101180.58;;;9.32;73.44
77017;BME280;65949;53.132;17.930;2023-05-17T03:09:35;101185.86;;;9.31;73.57
77017;BME280;65949;53.132;17.930;2023-05-17T03:12:03;101185.31;;;9.29;73.19
77017;BME280;65949;53.132;17.930;2023-05-17T03:14:32;101192.61;;;9.28;73.25
77017;BME280;65949;53.132;17.930;2023-05-17T03:16:59;101204.27;;;9.26;73.13
77017;BME280;65949;53.132;17.930;2023-05-17T03:19:26;101208.77;;;9.27;73.14
77017;BME280;65949;53.132;17.930;2023-05-17T03:21:53;101203.98;;;9.27;72.59
77017;BME280;65949;53.132;17.930;2023-05-17T03:24:20;101190.59;;;9.26;72.64
77017;BME280;65949;53.132;17.930;2023-05-17T03:26:47;101191.77;;;9.25;72.54
77017;BME280;65949;53.132;17.930;2023-05-17T03:29:14;101207.27;;;9.24;72.06
77017;BME280;65949;53.132;17.930;2023-05-17T03:31:43;101213.52;;;9.23;71.89
77017;BME280;65949;53.132;17.930;2023-05-17T03:34:10;101206.65;;;9.20;71.66
77017;BME280;65949;53.132;17.930;2023-05-17T03:36:38;101207.54;;;9.18;71.29
77017;BME280;65949;53.132;17.930;2023-05-17T03:39:06;101212.27;;;9.15;71.06
77017;BME280;65949;53.132;17.930;2023-05-17T03:41:33;101209.68;;;9.13;71.00
77017;BME280;65949;53.132;17.930;2023-05-17T03:44:00;101215.97;;;9.12;71.16
77017;BME280;65949;53.132;17.930;2023-05-17T03:46:27;101216.88;;;9.14;70.88
77017;BME280;65949;53.132;17.930;2023-05-17T03:48:53;101217.78;;;9.14;70.74
77017;BME280;65949;53.132;17.930;2023-05-17T03:51:21;101222.21;;;9.15;70.61
77017;BME280;65949;53.132;17.930;2023-05-17T03:53:55;101228.26;;;9.14;70.18
77017;BME280;65949;53.132;17.930;2023-05-17T03:56:22;101227.11;;;9.13;70.33
77017;BME280;65949;53.132;17.930;2023-05-17T03:58:49;101220.83;;;9.16;70.13
77017;BME280;65949;53.132;17.930;2023-05-17T04:01:16;101228.54;;;9.14;70.09
77017;BME280;65949;53.132;17.930;2023-05-17T04:03:43;101228.23;;;9.14;70.11
77017;BME280;65949;53.132;17.930;2023-05-17T04:06:12;101229.19;;;9.18;69.95
77017;BME280;65949;53.132;17.930;2023-05-17T04:08:39;101230.09;;;9.21;69.70
77017;BME280;65949;53.132;17.930;2023-05-17T04:11:06;101230.27;;;9.20;69.70
77017;BME280;65949;53.132;17.930;2023-05-17T04:13:41;101235.64;;;9.20;69.70
77017;BME280;65949;53.132;17.930;2023-05-17T04:16:09;101238.95;;;9.25;69.96
77017;BME280;65949;53.132;17.930;2023-05-17T04:18:37;101237.77;;;9.28;69.76
77017;BME280;65949;53.132;17.930;2023-05-17T04:21:05;101243.01;;;9.30;69.87
77017;BME280;65949;53.132;17.930;2023-05-17T04:23:33;101246.23;;;9.38;69.70
77017;BME280;65949;53.132;17.930;2023-05-17T04:26:01;101247.80;;;9.45;69.50
77017;BME280;65949;53.132;17.930;2023-05-17T04:28:29;101250.17;;;9.46;69.28
77017;BME280;65949;53.132;17.930;2023-05-17T04:30:57;101248.10;;;9.50;69.42
77017;BME280;65949;53.132;17.930;2023-05-17T04:33:23;101251.58;;;9.59;69.34
77017;BME280;65949;53.132;17.930;2023-05-17T04:35:53;101258.36;;;9.69;68.94
77017;BME280;65949;53.132;17.930;2023-05-17T04:38:21;101263.36;;;9.85;68.68
77017;BME280;65949;53.132;17.930;2023-05-17T04:40:50;101265.69;;;10.08;68.26
77017;BME280;65949;53.132;17.930;2023-05-17T04:43:16;101269.71;;;10.26;67.57
77017;BME280;65949;53.132;17.930;2023-05-17T04:45:43;101266.26;;;10.37;66.85
77017;BME280;65949;53.132;17.930;2023-05-17T04:48:10;101271.67;;;10.55;66.92
77017;BME280;65949;53.132;17.930;2023-05-17T04:50:37;101271.79;;;10.80;65.94
77017;BME280;65949;53.132;17.930;2023-05-17T04:53:04;101275.18;;;11.01;65.52
77017;BME280;65949;53.132;17.930;2023-05-17T04:55:36;101277.56;;;11.18;64.33
77017;BME280;65949;53.132;17.930;2023-05-17T04:58:03;101269.98;;;11.25;64.69
77017;BME280;65949;53.132;17.930;2023-05-17T05:00:31;101272.45;;;11.46;64.48
77017;BME280;65949;53.132;17.930;2023-05-17T05:03:02;101274.05;;;11.58;62.82
77017;BME280;65949;53.132;17.930;2023-05-17T05:05:30;101277.00;;;11.50;62.58
77017;BME280;65949;53.132;17.930;2023-05-17T05:07:57;101280.07;;;11.61;62.77
77017;BME280;65949;53.132;17.930;2023-05-17T05:10:24;101281.77;;;11.75;62.82
77017;BME280;65949;53.132;17.930;2023-05-17T05:12:54;101281.89;;;11.92;62.35
77017;BME280;65949;53.132;17.930;2023-05-17T05:15:21;101287.15;;;12.00;61.45
77017;BME280;65949;53.132;17.930;2023-05-17T05:17:52;101287.59;;;11.74;60.23
77017;BME280;65949;53.132;17.930;2023-05-17T05:20:19;101286.17;;;11.65;61.16
77017;BME280;65949;53.132;17.930;2023-05-17T05:22:46;101284.04;;;11.74;60.38
77017;BME280;65949;53.132;17.930;2023-05-17T05:25:13;101285.11;;;11.86;60.74
77017;BME280;65949;53.132;17.930;2023-05-17T05:27:40;101286.67;;;12.00;60.21
77017;BME280;65949;53.132;17.930;2023-05-17T05:30:07;101286.73;;;12.10;59.70
77017;BME280;65949;53.132;17.930;2023-05-17T05:32:35;101285.82;;;12.18;59.21
77017;BME280;65949;53.132;17.930;2023-05-17T05:35:04;101281.77;;;12.39;58.18
77017;BME280;65949;53.132;17.930;2023-05-17T05:37:31;101281.56;;;12.63;58.33
77017;BME280;65949;53.132;17.930;2023-05-17T05:39:58;101283.24;;;12.92;57.02
77017;BME280;65949;53.132;17.930;2023-05-17T05:42:25;101285.53;;;12.97;56.27
77017;BME280;65949;53.132;17.930;2023-05-17T05:44:53;101288.90;;;13.21;56.80
77017;BME280;65949;53.132;17.930;2023-05-17T05:47:21;101293.42;;;13.46;55.22
77017;BME280;65949;53.132;17.930;2023-05-17T05:49:48;101290.20;;;13.53;55.44
77017;BME280;65949;53.132;17.930;2023-05-17T05:52:14;101293.78;;;13.69;55.33
77017;BME280;65949;53.132;17.930;2023-05-17T05:54:41;101296.73;;;13.95;55.29
77017;BME280;65949;53.132;17.930;2023-05-17T05:57:08;101298.48;;;14.19;54.53
77017;BME280;65949;53.132;17.930;2023-05-17T05:59:35;101300.89;;;14.39;54.21
77017;BME280;65949;53.132;17.930;2023-05-17T06:02:01;101300.32;;;14.49;54.43
77017;BME280;65949;53.132;17.930;2023-05-17T06:04:28;101310.02;;;14.50;53.11
77017;BME280;65949;53.132;17.930;2023-05-17T06:06:55;101310.06;;;13.99;52.94
77017;BME280;65949;53.132;17.930;2023-05-17T06:09:22;101315.33;;;13.51;54.03
77017;BME280;65949;53.132;17.930;2023-05-17T06:11:51;101310.35;;;13.10;54.97
77017;BME280;65949;53.132;17.930;2023-05-17T06:14:19;101311.59;;;12.88;55.33
77017;BME280;65949;53.132;17.930;2023-05-17T06:16:45;101311.27;;;12.58;56.28
77017;BME280;65949;53.132;17.930;2023-05-17T06:19:14;101315.91;;;12.54;56.98
77017;BME280;65949;53.132;17.930;2023-05-17T06:21:40;101319.84;;;12.50;56.95
77017;BME280;65949;53.132;17.930;2023-05-17T06:24:07;101323.09;;;12.44;57.22
77017;BME280;65949;53.132;17.930;2023-05-17T06:26:34;101324.27;;;12.39;57.23
77017;BME280;65949;53.132;17.930;2023-05-17T06:29:00;101322.71;;;12.33;57.85
77017;BME280;65949;53.132;17.930;2023-05-17T06:31:27;101321.63;;;12.34;57.76
77017;BME280;65949;53.132;17.930;2023-05-17T06:33:54;101325.77;;;12.30;58.02
77017;BME280;65949;53.132;17.930;2023-05-17T06:36:20;101320.67;;;12.28;58.36
77017;BME280;65949;53.132;17.930;2023-05-17T06:38:47;101323.59;;;12.27;58.39
77017;BME280;65949;53.132;17.930;2023-05-17T06:41:14;101322.34;;;12.38;58.44
77017;BME280;65949;53.132;17.930;2023-05-17T06:43:40;101323.05;;;12.48;58.53
77017;BME280;65949;53.132;17.930;2023-05-17T06:46:07;101319.77;;;12.58;58.54
77017;BME280;65949;53.132;17.930;2023-05-17T06:48:33;101322.33;;;12.72;58.39
77017;BME280;65949;53.132;17.930;2023-05-17T06:51:00;101324.09;;;12.94;58.34
77017;BME280;65949;53.132;17.930;2023-05-17T06:53:26;101323.60;;;13.03;57.02
77017;BME280;65949;53.132;17.930;2023-05-17T06:55:53;101320.92;;;12.87;57.42
77017;BME280;65949;53.132;17.930;2023-05-17T06:58:20;101320.88;;;12.74;57.90
77017;BME280;65949;53.132;17.930;2023-05-17T07:00:46;101322.76;;;12.73;58.41
77017;BME280;65949;53.132;17.930;2023-05-17T07:03:13;101322.27;;;12.77;58.42
77017;BME280;65949;53.132;17.930;2023-05-17T07:05:40;101324.84;;;12.90;58.37
77017;BME280;65949;53.132;17.930;2023-05-17T07:08:06;101331.70;;;13.02;56.97
77017;BME280;65949;53.132;17.930;2023-05-17T07:10:33;101339.10;;;12.99;57.34
77017;BME280;65949;53.132;17.930;2023-05-17T07:13:00;101342.91;;;13.03;58.04
77017;BME280;65949;53.132;17.930;2023-05-17T07:15:26;101348.14;;;13.20;57.23
77017;BME280;65949;53.132;17.930;2023-05-17T07:17:53;101350.39;;;13.19;56.85
77017;BME280;65949;53.132;17.930;2023-05-17T07:20:20;101354.77;;;13.22;56.77
77017;BME280;65949;53.132;17.930;2023-05-17T07:22:47;101359.05;;;13.29;56.64
77017;BME280;65949;53.132;17.930;2023-05-17T07:25:13;101359.89;;;13.38;56.56
77017;BME280;65949;53.132;17.930;2023-05-17T07:27:41;101356.70;;;13.40;56.03
77017;BME280;65949;53.132;17.930;2023-05-17T07:30:08;101363.95;;;13.37;56.06
77017;BME280;65949;53.132;17.930;2023-05-17T07:32:35;101362.82;;;13.36;56.62
77017;BME280;65949;53.132;17.930;2023-05-17T07:35:02;101368.11;;;13.47;56.64
77017;BME280;65949;53.132;17.930;2023-05-17T07:37:29;101366.87;;;13.49;55.85
77017;BME280;65949;53.132;17.930;2023-05-17T07:39:55;101365.00;;;13.52;56.46
77017;BME280;65949;53.132;17.930;2023-05-17T07:42:22;101367.66;;;13.71;55.93
77017;BME280;65949;53.132;17.930;2023-05-17T07:44:48;101363.66;;;13.79;55.47
77017;BME280;65949;53.132;17.930;2023-05-17T07:47:15;101366.02;;;13.79;55.03
77017;BME280;65949;53.132;17.930;2023-05-17T07:49:42;101364.59;;;13.86;54.08
77017;BME280;65949;53.132;17.930;2023-05-17T07:52:09;101362.44;;;13.87;54.30
77017;BME280;65949;53.132;17.930;2023-05-17T07:54:35;101364.42;;;14.00;54.39
77017;BME280;65949;53.132;17.930;2023-05-17T07:57:02;101367.67;;;14.14;54.81
77017;BME280;65949;53.132;17.930;2023-05-17T07:59:29;101372.30;;;14.26;54.28
77017;BME280;65949;53.132;17.930;2023-05-17T08:01:55;101375.63;;;14.32;53.47
77017;BME280;65949;53.132;17.930;2023-05-17T08:04:22;101374.52;;;14.21;53.85
77017;BME280;65949;53.132;17.930;2023-05-17T08:06:49;101378.76;;;14.29;53.95
77017;BME280;65949;53.132;17.930;2023-05-17T08:09:16;101377.16;;;14.45;53.19
77017;BME280;65949;53.132;17.930;2023-05-17T08:11:43;101372.02;;;14.48;52.96
77017;BME280;65949;53.132;17.930;2023-05-17T08:14:14;101378.13;;;14.63;52.85
77017;BME280;65949;53.132;17.930;2023-05-17T08:16:41;101382.62;;;14.80;51.45
77017;BME280;65949;53.132;17.930;2023-05-17T08:19:10;101379.04;;;14.72;51.76
77017;BME280;65949;53.132;17.930;2023-05-17T08:21:42;101379.31;;;14.86;52.19
77017;BME280;65949;53.132;17.930;2023-05-17T08:24:09;101381.83;;;14.99;51.93
77017;BME280;65949;53.132;17.930;2023-05-17T08:26:35;101387.02;;;14.93;51.91
77017;BME280;65949;53.132;17.930;2023-05-17T08:29:03;101391.66;;;14.93;50.83
77017;BME280;65949;53.132;17.930;2023-05-17T08:31:31;101384.34;;;14.84;51.26
77017;BME280;65949;53.132;17.930;2023-05-17T08:33:57;101390.65;;;14.87;51.52
77017;BME280;65949;53.132;17.930;2023-05-17T08:36:24;101396.05;;;14.95;50.83
77017;BME280;65949;53.132;17.930;2023-05-17T08:38:51;101397.73;;;14.88;50.78
77017;BME280;65949;53.132;17.930;2023-05-17T08:41:18;101393.89;;;14.71;51.01
77017;BME280;65949;53.132;17.930;2023-05-17T08:43:47;101397.34;;;14.62;51.22
77017;BME280;65949;53.132;17.930;2023-05-17T08:46:15;101393.55;;;14.59;51.46
77017;BME280;65949;53.132;17.930;2023-05-17T08:48:45;101386.48;;;14.60;50.72
77017;BME280;65949;53.132;17.930;2023-05-17T08:51:13;101386.27;;;14.56;50.33
77017;BME280;65949;53.132;17.930;2023-05-17T08:53:40;101381.99;;;14.43;50.68
77017;BME280;65949;53.132;17.930;2023-05-17T08:56:09;101379.54;;;14.44;51.38
77017;BME280;65949;53.132;17.930;2023-05-17T08:58:40;101389.54;;;14.43;50.35
77017;BME280;65949;53.132;17.930;2023-05-17T09:01:08;101391.05;;;14.35;50.76
77017;BME280;65949;53.132;17.930;2023-05-17T09:03:38;101393.67;;;14.37;51.65
77017;BME280;65949;53.132;17.930;2023-05-17T09:06:06;101391.39;;;14.49;51.50
77017;BME280;65949;53.132;17.930;2023-05-17T09:08:36;101393.56;;;14.59;51.28
77017;BME280;65949;53.132;17.930;2023-05-17T09:11:03;101391.59;;;14.87;51.94
77017;BME280;65949;53.132;17.930;2023-05-17T09:13:30;101390.86;;;15.12;50.82
77017;BME280;65949;53.132;17.930;2023-05-17T09:15:57;101398.69;;;15.14;50.37
77017;BME280;65949;53.132;17.930;2023-05-17T09:18:30;101400.63;;;15.10;50.37
77017;BME280;65949;53.132;17.930;2023-05-17T09:21:01;101394.58;;;15.20;50.60
77017;BME280;65949;53.132;17.930;2023-05-17T09:23:30;101401.57;;;15.13;49.89
77017;BME280;65949;53.132;17.930;2023-05-17T09:26:06;101404.46;;;14.92;49.72
77017;BME280;65949;53.132;17.930;2023-05-17T09:28:37;101401.84;;;14.84;50.23
77017;BME280;65949;53.132;17.930;2023-05-17T09:31:06;101402.73;;;14.88;49.60
77017;BME280;65949;53.132;17.930;2023-05-17T09:33:41;101407.66;;;14.90;48.77
77017;BME280;65949;53.132;17.930;2023-05-17T09:36:15;101408.30;;;14.88;49.28
77017;BME280;65949;53.132;17.930;2023-05-17T09:39:00;101407.44;;;14.87;49.73
77017;BME280;65949;53.132;17.930;2023-05-17T09:41:29;101410.70;;;15.01;50.68
77017;BME280;65949;53.132;17.930;2023-05-17T09:43:58;101406.09;;;14.99;50.58
77017;BME280;65949;53.132;17.930;2023-05-17T09:46:37;101413.85;;;14.83;50.25
77017;BME280;65949;53.132;17.930;2023-05-17T09:49:07;101412.64;;;14.85;49.99
77017;BME280;65949;53.132;17.930;2023-05-17T09:51:38;101413.91;;;14.97;49.28
77017;BME280;65949;53.132;17.930;2023-05-17T09:54:05;101412.48;;;14.92;49.45
77017;BME280;65949;53.132;17.930;2023-05-17T09:56:33;101414.70;;;14.86;49.58
77017;BME280;65949;53.132;17.930;2023-05-17T09:59:00;101413.88;;;14.70;49.80
77017;BME280;65949;53.132;17.930;2023-05-17T10:01:29;101416.88;;;14.70;49.87
77017;BME280;65949;53.132;17.930;2023-05-17T10:04:00;101412.95;;;14.78;49.98
77017;BME280;65949;53.132;17.930;2023-05-17T10:06:29;101417.32;;;14.95;49.76
77017;BME280;65949;53.132;17.930;2023-05-17T10:08:57;101421.26;;;15.09;49.78
77017;BME280;65949;53.132;17.930;2023-05-17T10:11:29;101428.39;;;15.10;48.95
77017;BME280;65949;53.132;17.930;2023-05-17T10:14:13;101431.62;;;15.05;49.64
77017;BME280;65949;53.132;17.930;2023-05-17T10:16:44;101441.11;;;14.95;48.97
77017;BME280;65949;53.132;17.930;2023-05-17T10:19:11;101430.71;;;14.93;49.16
77017;BME280;65949;53.132;17.930;2023-05-17T10:21:38;101433.70;;;15.10;48.00
77017;BME280;65949;53.132;17.930;2023-05-17T10:24:06;101436.02;;;15.31;47.44
77017;BME280;65949;53.132;17.930;2023-05-17T10:26:34;101428.73;;;15.43;45.72
77017;BME280;65949;53.132;17.930;2023-05-17T10:29:03;101430.61;;;15.29;44.92
77017;BME280;65949;53.132;17.930;2023-05-17T10:31:32;101434.39;;;15.26;46.34
77017;BME280;65949;53.132;17.930;2023-05-17T10:34:03;101434.91;;;15.31;46.43
77017;BME280;65949;53.132;17.930;2023-05-17T10:36:32;101426.77;;;15.19;46.63
77017;BME280;65949;53.132;17.930;2023-05-17T10:38:59;101431.82;;;15.01;46.54
77017;BME280;65949;53.132;17.930;2023-05-17T10:41:32;101429.87;;;14.92;44.89
77017;BME280;65949;53.132;17.930;2023-05-17T10:44:04;101426.64;;;14.78;45.03
77017;BME280;65949;53.132;17.930;2023-05-17T10:46:34;101422.31;;;14.84;45.04
77017;BME280;65949;53.132;17.930;2023-05-17T10:49:01;101421.73;;;14.97;44.84
77017;BME280;65949;53.132;17.930;2023-05-17T10:51:35;101422.79;;;15.07;44.22
77017;BME280;65949;53.132;17.930;2023-05-17T10:56:41;101417.90;;;15.22;44.54
77017;BME280;65949;53.132;17.930;2023-05-17T11:02:06;101419.35;;;15.62;44.34
77017;BME280;65949;53.132;17.930;2023-05-17T11:04:41;101417.46;;;15.77;43.80
77017;BME280;65949;53.132;17.930;2023-05-17T11:09:45;101419.41;;;15.89;43.28
77017;BME280;65949;53.132;17.930;2023-05-17T11:12:15;101426.91;;;15.65;43.22
77017;BME280;65949;53.132;17.930;2023-05-17T11:14:51;101431.55;;;15.47;43.55
77017;BME280;65949;53.132;17.930;2023-05-17T11:17:20;101434.02;;;15.44;44.17
77017;BME280;65949;53.132;17.930;2023-05-17T11:20:09;101438.03;;;15.49;44.40
77017;BME280;65949;53.132;17.930;2023-05-17T11:22:38;101441.23;;;15.27;44.23
77017;BME280;65949;53.132;17.930;2023-05-17T11:25:08;101438.70;;;15.10;45.01
77017;BME280;65949;53.132;17.930;2023-05-17T11:27:37;101438.52;;;14.98;44.96
77017;BME280;65949;53.132;17.930;2023-05-17T11:30:09;101437.58;;;14.83;45.40
77017;BME280;65949;53.132;17.930;2023-05-17T11:32:36;101437.31;;;14.88;45.78
77017;BME280;65949;53.132;17.930;2023-05-17T11:35:03;101434.33;;;15.19;45.15
77017;BME280;65949;53.132;17.930;2023-05-17T11:37:32;101432.92;;;15.23;44.88
77017;BME280;65949;53.132;17.930;2023-05-17T11:40:06;101433.08;;;15.12;44.65
77017;BME280;65949;53.132;17.930;2023-05-17T11:42:33;101436.34;;;15.12;45.47
77017;BME280;65949;53.132;17.930;2023-05-17T11:45:03;101437.39;;;15.20;45.20
77017;BME280;65949;53.132;17.930;2023-05-17T11:47:30;101438.75;;;15.20;45.77
77017;BME280;65949;53.132;17.930;2023-05-17T11:50:01;101439.14;;;15.41;45.68
77017;BME280;65949;53.132;17.930;2023-05-17T11:52:28;101436.78;;;15.65;44.94
77017;BME280;65949;53.132;17.930;2023-05-17T11:54:56;101437.45;;;15.77;44.38
77017;BME280;65949;53.132;17.930;2023-05-17T11:57:31;101437.20;;;15.90;43.92
77017;BME280;65949;53.132;17.930;2023-05-17T12:00:02;101442.05;;;16.02;42.81
77017;BME280;65949;53.132;17.930;2023-05-17T12:02:39;101440.73;;;16.03;42.75
77017;BME280;65949;53.132;17.930;2023-05-17T12:05:07;101435.77;;;16.07;42.58
77017;BME280;65949;53.132;17.930;2023-05-17T12:07:34;101436.92;;;16.22;42.87
77017;BME280;65949;53.132;17.930;2023-05-17T12:10:02;101448.38;;;16.33;42.64
77017;BME280;65949;53.132;17.930;2023-05-17T12:12:31;101455.71;;;16.30;42.72
77017;BME280;65949;53.132;17.930;2023-05-17T12:14:58;101468.08;;;16.13;43.12
77017;BME280;65949;53.132;17.930;2023-05-17T12:17:30;101466.06;;;15.92;43.76
77017;BME280;65949;53.132;17.930;2023-05-17T12:20:08;101465.10;;;15.78;43.93
77017;BME280;65949;53.132;17.930;2023-05-17T12:22:55;101462.14;;;15.75;43.62
77017;BME280;65949;53.132;17.930;2023-05-17T12:25:23;101462.34;;;15.82;42.53
77017;BME280;65949;53.132;17.930;2023-05-17T12:28:15;101463.73;;;15.80;42.64
77017;BME280;65949;53.132;17.930;2023-05-17T12:30:42;101473.68;;;15.93;41.60
77017;BME280;65949;53.132;17.930;2023-05-17T12:33:10;101475.94;;;15.91;40.57
77017;BME280;65949;53.132;17.930;2023-05-17T12:35:37;101475.52;;;15.95;41.24
77017;BME280;65949;53.132;17.930;2023-05-17T12:38:03;101476.15;;;16.08;41.20
77017;BME280;65949;53.132;17.930;2023-05-17T12:40:30;101477.02;;;16.19;41.32
77017;BME280;65949;53.132;17.930;2023-05-17T12:43:01;101473.63;;;16.26;41.24
77017;BME280;65949;53.132;17.930;2023-05-17T12:45:32;101482.16;;;16.33;40.93
77017;BME280;65949;53.132;17.930;2023-05-17T12:47:59;101480.09;;;16.26;40.91
77017;BME280;65949;53.132;17.930;2023-05-17T12:50:30;101482.27;;;16.20;41.47
77017;BME280;65949;53.132;17.930;2023-05-17T12:52:57;101484.38;;;16.21;41.39
77017;BME280;65949;53.132;17.930;2023-05-17T12:55:24;101482.46;;;16.23;41.40
77017;BME280;65949;53.132;17.930;2023-05-17T12:57:53;101483.06;;;16.33;40.69
77017;BME280;65949;53.132;17.930;2023-05-17T13:00:20;101485.11;;;16.32;39.58
77017;BME280;65949;53.132;17.930;2023-05-17T13:02:47;101477.11;;;16.06;39.13
77017;BME280;65949;53.132;17.930;2023-05-17T13:05:18;101479.40;;;15.99;40.02
77017;BME280;65949;53.132;17.930;2023-05-17T13:07:47;101478.98;;;16.12;39.55
77017;BME280;65949;53.132;17.930;2023-05-17T13:10:23;101479.69;;;16.20;39.06
77017;BME280;65949;53.132;17.930;2023-05-17T13:12:57;101482.02;;;16.20;38.17